Time;durP1;ratioP1;P1;durP2;ratioP2;P2;SDS_P1;SDS_P2;PMS_P1;PMS_P2;Temp;Humidity;BMP_temperature;BMP_pressure;BME280_temperature;BME280_humidity;BME280_pressure;Samples;Min_cycle;Max_cycle;Signal;HPM_P1;HPM_P2
2023/04/06 00:01:32;;;;;;;7.3;5;;;;;;;0.32;74.16699;939.1317;;;;
2023/04/06 00:04:00;;;;;;;5.6;4.8;;;;;;;0.37;73.90723;939.1758;;;;
2023/04/06 00:06:26;;;;;;;6.5;4.8;;;;;;;0.38;73.55176;939.1716;;;;
2023/04/06 00:08:52;;;;;;;5.7;4.6;;;;;;;0.27;73.85645;939.0111;;;;
2023/04/06 00:11:18;;;;;;;8.6;5;;;;;;;0.29;73.97266;939.0967;;;;
2023/04/06 00:13:44;;;;;;;8.5;5.5;;;;;;;0.26;73.87891;939.0635;;;;
2023/04/06 00:16:09;;;;;;;6.5;5;;;;;;;0.17;74.28516;939.0553;;;;
2023/04/06 00:18:35;;;;;;;7.1;5.2;;;;;;;0.01;75.27148;939.0122;;;;
2023/04/06 00:21:00;;;;;;;6.6;5.2;;;;;;;0.1;75.54199;939.0903;;;;
2023/04/06 00:23:26;;;;;;;5.5;4.4;;;;;;;0.16;75.36426;939.0776;;;;
2023/04/06 00:25:51;;;;;;;10;5.5;;;;;;;0.22;75.1416;939.0528;;;;
2023/04/06 00:28:21;;;;;;;8.1;5.5;;;;;;;0.25;75.23535;939.0402;;;;
2023/04/06 00:30:43;;;;;;;7.1;4.8;;;;;;;0.19;75.49121;939.0711;;;;
2023/04/06 00:33:09;;;;;;;5.6;5;;;;;;;0.15;75.6416;939.0145;;;;
2023/04/06 00:35:34;;;;;;;6.7;4.6;;;;;;;0.22;75.29785;939.034;;;;
2023/04/06 00:38:01;;;;;;;7.1;5;;;;;;;0.26;75.12598;939.0131;;;;
2023/04/06 00:40:28;;;;;;;7.1;4.7;;;;;;;0.22;75.27539;938.9816;;;;
2023/04/06 00:42:52;;;;;;;5.8;4.8;;;;;;;0.22;75.31934;938.9785;;;;
2023/04/06 00:45:18;;;;;;;7.1;4.9;;;;;;;0.26;75.11426;938.9997;;;;
2023/04/06 00:47:43;;;;;;;7.5;5.1;;;;;;;0.23;75.02051;938.9295;;;;
2023/04/06 00:50:08;;;;;;;6.8;4.7;;;;;;;0.15;75.08398;938.9669;;;;
2023/04/06 00:52:37;;;;;;;7.5;5;;;;;;;0.15;75.17285;938.959;;;;
2023/04/06 00:55:02;;;;;;;8.5;5;;;;;;;0.14;74.80371;938.978;;;;
2023/04/06 00:57:29;;;;;;;10.5;5.5;;;;;;;0.03;75.07422;938.9916;;;;
2023/04/06 00:59:54;;;;;;;6.7;4.8;;;;;;;-0.05;75.40332;939.0386;;;;
2023/04/06 01:02:19;;;;;;;7.1;5.1;;;;;;;-0.16;75.89844;938.992;;;;
2023/04/06 01:04:44;;;;;;;5.1;4.6;;;;;;;-0.15;76.02246;938.9984;;;;
2023/04/06 01:07:09;;;;;;;5.5;4.9;;;;;;;-0.18;76.28418;938.9487;;;;
2023/04/06 01:09:40;;;;;;;7.3;5.2;;;;;;;-0.18;76.10645;938.9966;;;;
2023/04/06 01:12:03;;;;;;;7.6;5.4;;;;;;;-0.25;76.69434;938.9971;;;;
2023/04/06 01:14:36;;;;;;;6.7;4.6;;;;;;;-0.22;76.67676;938.9758;;;;
2023/04/06 01:17:04;;;;;;;7.4;5.5;;;;;;;-0.4;77.40234;938.938;;;;
2023/04/06 01:19:29;;;;;;;8;5.8;;;;;;;-0.45;77.97168;938.9414;;;;
2023/04/06 01:21:55;;;;;;;7.5;6.1;;;;;;;-0.37;77.89746;938.9568;;;;
2023/04/06 01:24:20;;;;;;;9.3;6.7;;;;;;;-0.35;77.72266;938.9703;;;;
2023/04/06 01:26:46;;;;;;;6.7;4.8;;;;;;;-0.32;77.60547;938.9258;;;;
2023/04/06 01:29:11;;;;;;;6.8;5.5;;;;;;;-0.31;77.87402;938.9456;;;;
2023/04/06 01:31:36;;;;;;;6.7;5;;;;;;;-0.22;77.69238;938.8728;;;;
2023/04/06 01:34:01;;;;;;;6.4;5;;;;;;;-0.04;77.53418;938.903;;;;
2023/04/06 01:36:44;;;;;;;6.3;4.9;;;;;;;0.17;76.82617;938.9238;;;;
2023/04/06 01:39:10;;;;;;;5.9;4.9;;;;;;;0.31;75.97168;938.9489;;;;
2023/04/06 01:41:36;;;;;;;6.7;4.9;;;;;;;0.25;75.8916;938.9099;;;;
2023/04/06 01:44:01;;;;;;;6.9;4.9;;;;;;;0.25;75.72559;938.9211;;;;
2023/04/06 01:46:26;;;;;;;8.2;5.5;;;;;;;0.26;75.39355;938.9208;;;;
2023/04/06 01:48:51;;;;;;;6.7;4.9;;;;;;;0.29;75.34375;938.9097;;;;
2023/04/06 01:51:17;;;;;;;6.1;4.5;;;;;;;0.4;75.03809;938.8828;;;;
2023/04/06 01:53:42;;;;;;;6.5;5.3;;;;;;;0.43;74.6875;938.8855;;;;
2023/04/06 01:56:07;;;;;;;6.5;4.8;;;;;;;0.32;75.02539;938.84;;;;
2023/04/06 01:58:32;;;;;;;8.4;5.4;;;;;;;0.17;75.66699;938.8912;;;;
2023/04/06 02:00:58;;;;;;;6.2;4.3;;;;;;;0.11;76.04492;938.9067;;;;
2023/04/06 02:03:24;;;;;;;6.7;4.9;;;;;;;0.21;75.68555;938.9004;;;;
2023/04/06 02:05:51;;;;;;;6.3;4.8;;;;;;;0.38;74.72266;938.8458;;;;
2023/04/06 02:08:16;;;;;;;5.8;4.9;;;;;;;0.48;74.18457;938.815;;;;
2023/04/06 02:10:42;;;;;;;6;5;;;;;;;0.44;74.11133;938.8358;;;;
2023/04/06 02:13:08;;;;;;;6.4;5.1;;;;;;;0.45;74.14453;938.8423;;;;
2023/04/06 02:15:37;;;;;;;5.4;4.7;;;;;;;0.35;74.49512;938.7159;;;;
2023/04/06 02:18:02;;;;;;;5.7;4.7;;;;;;;0.19;75.54883;938.7447;;;;
2023/04/06 02:20:30;;;;;;;6.1;5.1;;;;;;;0.09;75.96582;938.7581;;;;
2023/04/06 02:22:55;;;;;;;6.8;5.2;;;;;;;0.06;76.12793;938.7692;;;;
2023/04/06 02:25:21;;;;;;;7.6;5.2;;;;;;;0.15;75.875;938.8101;;;;
2023/04/06 02:27:45;;;;;;;6.6;4.9;;;;;;;0.11;75.9248;938.7103;;;;
2023/04/06 02:30:12;;;;;;;6.4;4.8;;;;;;;0.16;75.64258;938.7683;;;;
2023/04/06 02:32:38;;;;;;;6.2;5;;;;;;;0.05;75.87988;938.7625;;;;
2023/04/06 02:35:03;;;;;;;6.2;4.7;;;;;;;0;76.36035;938.7391;;;;
2023/04/06 02:37:28;;;;;;;7.5;5.6;;;;;;;-0.04;76.67676;938.7684;;;;
2023/04/06 02:39:54;;;;;;;6.6;5.1;;;;;;;-0.07;76.91699;938.7709;;;;
2023/04/06 02:42:19;;;;;;;7.1;4.7;;;;;;;-0.07;76.93848;938.7749;;;;
2023/04/06 02:44:45;;;;;;;6.4;4.8;;;;;;;-0.04;76.85449;938.6541;;;;
2023/04/06 02:47:10;;;;;;;6.3;5.1;;;;;;;-0.06;76.93848;938.6984;;;;
2023/04/06 02:49:37;;;;;;;8.3;5.1;;;;;;;-0.12;77.30762;938.7512;;;;
2023/04/06 02:52:02;;;;;;;5.7;4.8;;;;;;;-0.22;77.72559;938.675;;;;
2023/04/06 02:54:29;;;;;;;9.3;5.4;;;;;;;-0.26;78.26074;938.7562;;;;
2023/04/06 02:56:54;;;;;;;5.9;5.1;;;;;;;-0.22;78.18164;938.7062;;;;
2023/04/06 02:59:20;;;;;;;7.5;4.8;;;;;;;-0.2;78.10547;938.6492;;;;
2023/04/06 03:01:45;;;;;;;5.2;4.7;;;;;;;-0.24;78.25488;938.6675;;;;
2023/04/06 03:04:11;;;;;;;6.9;5.2;;;;;;;-0.22;78.3584;938.6418;;;;
2023/04/06 03:06:37;;;;;;;6;4.8;;;;;;;-0.24;78.17676;938.6348;;;;
2023/04/06 03:09:02;;;;;;;5.8;5;;;;;;;-0.21;78.08203;938.662;;;;
2023/04/06 03:11:28;;;;;;;5.9;4.9;;;;;;;-0.22;78.02441;938.6769;;;;
2023/04/06 03:13:55;;;;;;;8.8;5.4;;;;;;;-0.24;78.1875;938.5942;;;;
2023/04/06 03:16:21;;;;;;;6.7;5.3;;;;;;;-0.24;78.35449;938.6364;;;;
2023/04/06 03:18:46;;;;;;;6.6;5.3;;;;;;;-0.15;77.9043;938.6511;;;;
2023/04/06 03:21:11;;;;;;;8.6;5.9;;;;;;;-0.11;77.74316;938.6349;;;;
2023/04/06 03:23:39;;;;;;;15.3;6.8;;;;;;;-0.11;77.56543;938.6703;;;;
2023/04/06 03:26:04;;;;;;;15.5;7.8;;;;;;;-0.07;77.27344;938.5887;;;;
2023/04/06 03:28:31;;;;;;;7.9;5.8;;;;;;;-0.16;77.42383;938.6564;;;;
2023/04/06 03:30:56;;;;;;;7.6;5.2;;;;;;;-0.11;77.70996;938.7238;;;;
2023/04/06 03:33:22;;;;;;;6.4;5;;;;;;;0.13;77.01953;938.6989;;;;
2023/04/06 03:35:47;;;;;;;7.2;5.4;;;;;;;0.11;76.74902;938.6744;;;;
2023/04/06 03:38:15;;;;;;;8.8;5.6;;;;;;;0.07;77.34277;938.6827;;;;
2023/04/06 03:40:40;;;;;;;8.2;5.8;;;;;;;0.1;77.79492;938.6992;;;;
2023/04/06 03:43:05;;;;;;;8.6;5.6;;;;;;;0.31;77.39844;938.595;;;;
2023/04/06 03:45:31;;;;;;;8;5.6;;;;;;;0.4;77.03418;938.6345;;;;
2023/04/06 03:47:58;;;;;;;7.6;5.2;;;;;;;0.48;76.66016;938.6122;;;;
2023/04/06 03:50:23;;;;;;;7.9;5.4;;;;;;;0.5;76.37305;938.6844;;;;
2023/04/06 03:52:48;;;;;;;7;5.4;;;;;;;0.41;76.6582;938.7271;;;;
2023/04/06 03:55:13;;;;;;;10;5.9;;;;;;;0.42;76.69336;938.6861;;;;
2023/04/06 03:57:39;;;;;;;5.8;5.1;;;;;;;0.36;76.77246;938.7841;;;;
2023/04/06 04:00:04;;;;;;;7;5.2;;;;;;;0.29;77.32813;938.7806;;;;
2023/04/06 04:02:32;;;;;;;8.5;7.3;;;;;;;0.28;77.75;938.7388;;;;
2023/04/06 04:04:57;;;;;;;7.4;5.7;;;;;;;0.26;77.98047;938.7347;;;;
2023/04/06 04:07:28;;;;;;;5.9;5;;;;;;;0.28;78.25;938.7517;;;;
2023/04/06 04:09:56;;;;;;;6.5;5.1;;;;;;;0.23;78.26367;938.7119;;;;
2023/04/06 04:12:21;;;;;;;7;5.1;;;;;;;0.17;78.41895;938.6939;;;;
2023/04/06 04:14:50;;;;;;;7.8;5.3;;;;;;;0.1;79.04297;938.645;;;;
2023/04/06 04:17:15;;;;;;;9.6;5.4;;;;;;;0.2;78.95898;938.6613;;;;
2023/04/06 04:19:43;;;;;;;111.5;48.2;;;;;;;0.3;78.65625;938.71;;;;
2023/04/06 04:22:08;;;;;;;43.4;21.7;;;;;;;0.46;78.09375;938.7356;;;;
2023/04/06 04:24:33;;;;;;;54.1;39.9;;;;;;;0.46;77.77246;938.7241;;;;
2023/04/06 04:27:00;;;;;;;11.1;7.1;;;;;;;0.56;78.03418;938.7098;;;;
2023/04/06 04:29:25;;;;;;;9;6.5;;;;;;;0.58;78.3623;938.7047;;;;
2023/04/06 04:31:52;;;;;;;11.6;8.4;;;;;;;0.75;77.40137;938.7513;;;;
2023/04/06 04:34:17;;;;;;;12.9;6.6;;;;;;;0.82;76.9668;938.7403;;;;
2023/04/06 04:36:43;;;;;;;9.4;6.2;;;;;;;0.89;76.57813;938.7878;;;;
2023/04/06 04:39:07;;;;;;;9;5.8;;;;;;;0.9;76.40234;938.7678;;;;
2023/04/06 04:41:35;;;;;;;8.4;6.1;;;;;;;0.84;76.78027;938.772;;;;
2023/04/06 04:43:59;;;;;;;12.5;6.6;;;;;;;0.87;76.84375;938.7297;;;;
2023/04/06 04:46:32;;;;;;;9.6;6.1;;;;;;;0.81;77.05371;938.8069;;;;
2023/04/06 04:48:59;;;;;;;7.7;5.6;;;;;;;0.74;77.27539;938.7804;;;;
2023/04/06 04:51:24;;;;;;;10.4;6.2;;;;;;;0.73;77.53027;938.7935;;;;
2023/04/06 04:53:49;;;;;;;9.8;6.2;;;;;;;0.81;77.26465;938.8591;;;;
2023/04/06 04:56:15;;;;;;;10;6.8;;;;;;;0.95;77.01367;938.8627;;;;
2023/04/06 04:58:40;;;;;;;7.9;6;;;;;;;0.87;76.88672;938.8307;;;;
2023/04/06 05:01:07;;;;;;;6.9;6;;;;;;;0.9;77.03906;938.8274;;;;
2023/04/06 05:03:32;;;;;;;6.7;5.3;;;;;;;0.85;77.22949;938.8461;;;;
2023/04/06 05:06:02;;;;;;;11.6;7;;;;;;;0.89;77.3252;938.8847;;;;
2023/04/06 05:08:27;;;;;;;14.8;9.4;;;;;;;0.97;77.12793;938.884;;;;
2023/04/06 05:10:54;;;;;;;15.4;9.9;;;;;;;0.99;76.61914;938.8881;;;;
2023/04/06 05:13:19;;;;;;;10.7;7.2;;;;;;;1.01;76.59863;938.9094;;;;
2023/04/06 05:15:51;;;;;;;8.4;6.1;;;;;;;1.02;76.58984;938.9256;;;;
2023/04/06 05:18:21;;;;;;;11.2;6.9;;;;;;;1.05;76.8877;938.8456;;;;
2023/04/06 05:20:46;;;;;;;10.9;6.1;;;;;;;1.06;76.7207;938.8022;;;;
2023/04/06 05:23:14;;;;;;;8.8;5.8;;;;;;;1.07;76.53223;938.9113;;;;
2023/04/06 05:25:39;;;;;;;7.2;5.5;;;;;;;1.12;74.83105;938.9127;;;;
2023/04/06 05:28:07;;;;;;;7.6;5.5;;;;;;;1.17;75.55566;938.916;;;;
2023/04/06 05:30:32;;;;;;;8.5;6;;;;;;;1.2;75.56055;938.9305;;;;
2023/04/06 05:32:59;;;;;;;10.4;6;;;;;;;1.17;75.58984;938.9316;;;;
2023/04/06 05:35:24;;;;;;;8.4;5.7;;;;;;;1.31;75.29004;938.9568;;;;
2023/04/06 05:37:54;;;;;;;331.3;123.7;;;;;;;1.4;74.87012;938.9861;;;;
2023/04/06 05:40:19;;;;;;;163.8;64.6;;;;;;;1.57;74.46387;938.942;;;;
2023/04/06 05:42:49;;;;;;;18.4;9.6;;;;;;;1.53;74.18945;938.9576;;;;
2023/04/06 05:45:16;;;;;;;13.9;7.7;;;;;;;1.45;74.8252;938.9904;;;;
2023/04/06 05:47:38;;;;;;;39.9;19.7;;;;;;;1.62;74.58594;938.9225;;;;
2023/04/06 05:50:05;;;;;;;11.7;7.8;;;;;;;1.87;73.63379;938.9423;;;;
2023/04/06 05:52:30;;;;;;;10.4;6.6;;;;;;;2.01;72.7627;939.0327;;;;
2023/04/06 05:54:57;;;;;;;18.7;10.6;;;;;;;2.28;71.82324;938.9805;;;;
2023/04/06 05:57:22;;;;;;;12.6;7.9;;;;;;;2.31;71.13379;938.9998;;;;
2023/04/06 05:59:49;;;;;;;9.6;7.4;;;;;;;2.47;72.11328;939.0334;;;;
2023/04/06 06:02:15;;;;;;;12.9;8;;;;;;;3.18;69.78711;938.9584;;;;
2023/04/06 06:04:42;;;;;;;12.4;8.3;;;;;;;3.63;66.91699;938.9169;;;;
2023/04/06 06:07:07;;;;;;;11.7;8.3;;;;;;;3.81;66.60742;938.9755;;;;
2023/04/06 06:09:34;;;;;;;12.7;7;;;;;;;4.26;64.56348;938.92;;;;
2023/04/06 06:11:59;;;;;;;8.5;6.8;;;;;;;4.33;63.85352;938.9674;;;;
2023/04/06 06:14:28;;;;;;;9.6;5.8;;;;;;;4.17;63.49219;938.9506;;;;
2023/04/06 06:16:52;;;;;;;7.8;5.5;;;;;;;3.48;65.77051;938.9299;;;;
2023/04/06 06:19:19;;;;;;;8.3;5.4;;;;;;;3.33;66.36621;939.0352;;;;
2023/04/06 06:21:44;;;;;;;9;5.8;;;;;;;3.73;65.87598;939.025;;;;
2023/04/06 06:24:11;;;;;;;7.4;5.4;;;;;;;4.46;62.13867;938.9702;;;;
2023/04/06 06:26:39;;;;;;;8.5;5.2;;;;;;;5.19;59.5166;938.9716;;;;
2023/04/06 06:29:06;;;;;;;6.6;4.4;;;;;;;5.25;58.47656;938.9769;;;;
2023/04/06 06:31:31;;;;;;;4.7;3.7;;;;;;;6.24;56.00098;938.8448;;;;
2023/04/06 06:33:59;;;;;;;6.4;5.5;;;;;;;6.71;54.18457;938.9252;;;;
2023/04/06 06:36:25;;;;;;;6.3;4.7;;;;;;;6.69;53.52441;938.8734;;;;
2023/04/06 06:38:52;;;;;;;5.2;4.2;;;;;;;5.74;56.10547;938.8899;;;;
2023/04/06 06:41:17;;;;;;;5.2;4.3;;;;;;;4.89;58.22461;938.8698;;;;
2023/04/06 06:43:43;;;;;;;8;4.8;;;;;;;4.16;60.50977;938.8722;;;;
2023/04/06 06:46:08;;;;;;;8.1;4.8;;;;;;;3.86;61.95117;938.8338;;;;
2023/04/06 06:48:49;;;;;;;8.7;5.5;;;;;;;3.8;62.60645;938.8824;;;;
2023/04/06 06:51:17;;;;;;;7.3;4.7;;;;;;;3.6;63.08105;938.8752;;;;
2023/04/06 06:53:42;;;;;;;8.7;5.6;;;;;;;3.51;63.81055;938.7911;;;;
2023/04/06 06:56:10;;;;;;;6.1;4.9;;;;;;;3.5;63.59473;938.882;;;;
2023/04/06 06:58:35;;;;;;;7.1;5.4;;;;;;;3.84;63.38574;938.8844;;;;
2023/04/06 07:01:00;;;;;;;12.7;6.1;;;;;;;4.43;63.27246;938.9363;;;;
2023/04/06 07:03:28;;;;;;;10.4;5.9;;;;;;;4.65;61.37988;938.8997;;;;
2023/04/06 07:05:54;;;;;;;6.4;5.3;;;;;;;6.16;58.02441;938.8328;;;;
2023/04/06 07:08:18;;;;;;;7.3;5.6;;;;;;;5.93;57.01074;938.956;;;;
2023/04/06 07:10:44;;;;;;;6.8;5.1;;;;;;;5.52;56.94531;938.952;;;;
2023/04/06 07:13:10;;;;;;;10.8;5.6;;;;;;;5.55;56.75586;938.937;;;;
2023/04/06 07:15:38;;;;;;;9.5;5.9;;;;;;;5.26;57.02344;938.9501;;;;
2023/04/06 07:18:06;;;;;;;8.8;5.4;;;;;;;5.49;56.03809;938.8801;;;;
2023/04/06 07:20:31;;;;;;;7;5.4;;;;;;;5.64;54.25195;938.8934;;;;
2023/04/06 07:23:02;;;;;;;8.2;5.4;;;;;;;5.89;52.92871;938.8526;;;;
2023/04/06 07:25:26;;;;;;;6.4;5.1;;;;;;;5.74;52.41211;938.8929;;;;
2023/04/06 07:27:54;;;;;;;6.4;4.6;;;;;;;5.65;53.11328;938.889;;;;
2023/04/06 07:30:24;;;;;;;5.6;4.9;;;;;;;6.16;52.21582;938.9041;;;;
2023/04/06 07:32:47;;;;;;;7.3;4.9;;;;;;;6.45;52.40918;938.9059;;;;
2023/04/06 07:35:17;;;;;;;17.5;10.8;;;;;;;6.48;51.00977;938.8709;;;;
2023/04/06 07:37:47;;;;;;;8.7;6.4;;;;;;;5.89;51.31152;938.9252;;;;
2023/04/06 07:40:12;;;;;;;7.5;5.2;;;;;;;5.92;51.64355;938.8915;;;;
2023/04/06 07:42:40;;;;;;;5.3;4.7;;;;;;;6.51;52.14453;938.8843;;;;
2023/04/06 07:45:05;;;;;;;6.7;4.8;;;;;;;7.97;48.45215;938.7286;;;;
2023/04/06 07:47:30;;;;;;;7.1;5.3;;;;;;;8.1;48.08008;938.824;;;;
2023/04/06 07:49:57;;;;;;;7.6;4.9;;;;;;;9.28;46.6084;938.7917;;;;
2023/04/06 07:52:22;;;;;;;7.1;5.4;;;;;;;11.22;42.09473;938.761;;;;
2023/04/06 07:54:49;;;;;;;9.9;6.6;;;;;;;10.45;41.44922;938.8182;;;;
2023/04/06 07:57:12;;;;;;;7.1;6;;;;;;;10.51;41.99219;938.7695;;;;
2023/04/06 07:59:37;;;;;;;7.4;5.5;;;;;;;11.07;42.37695;938.7699;;;;
2023/04/06 08:02:02;;;;;;;7.4;5.3;;;;;;;10.61;41.03027;938.8301;;;;
2023/04/06 08:04:30;;;;;;;6.8;4.8;;;;;;;9.45;41.47852;938.8039;;;;
2023/04/06 08:06:55;;;;;;;6.7;4.8;;;;;;;9.05;42.37305;938.7743;;;;
2023/04/06 08:09:21;;;;;;;7.8;5.2;;;;;;;8.79;42.67676;938.7139;;;;
2023/04/06 08:11:48;;;;;;;6.8;4.7;;;;;;;9.75;42.66992;938.7495;;;;
2023/04/06 08:14:15;;;;;;;8;4.6;;;;;;;10.49;40.23145;938.7231;;;;
2023/04/06 08:16:39;;;;;;;6.7;5.4;;;;;;;11.07;38.66113;938.6345;;;;
2023/04/06 08:19:09;;;;;;;6;4.7;;;;;;;9.63;40.01367;938.6064;;;;
2023/04/06 08:21:33;;;;;;;5.3;4.8;;;;;;;10.35;40.04688;938.6283;;;;
2023/04/06 08:23:58;;;;;;;7.7;5.4;;;;;;;11.04;39.21875;938.517;;;;
2023/04/06 08:26:25;;;;;;;6.2;4.6;;;;;;;10.09;37.57031;938.5331;;;;
2023/04/06 08:28:50;;;;;;;6.2;5;;;;;;;9.22;38.71289;938.5134;;;;
2023/04/06 08:31:17;;;;;;;5.5;4.9;;;;;;;9.62;38.7832;938.5308;;;;
2023/04/06 08:33:43;;;;;;;6.5;4.9;;;;;;;9.75;38.79492;938.5055;;;;
2023/04/06 08:36:08;;;;;;;5.3;4.6;;;;;;;9.86;38.18848;938.5206;;;;
2023/04/06 08:38:33;;;;;;;6.3;4.7;;;;;;;10.04;37.49805;938.4977;;;;
2023/04/06 08:41:00;;;;;;;5.3;4.3;;;;;;;9.83;37.5127;938.521;;;;
2023/04/06 08:43:27;;;;;;;6.5;5;;;;;;;10.86;38.51758;938.4818;;;;
2023/04/06 08:46:00;;;;;;;6.4;5.4;;;;;;;12.81;35.78711;938.4031;;;;
2023/04/06 08:48:25;;;;;;;6.2;5.4;;;;;;;16.21;30.49121;938.3211;;;;
2023/04/06 08:50:50;;;;;;;5.1;4.4;;;;;;;17.88;28.01758;938.3391;;;;
2023/04/06 08:53:15;;;;;;;4.9;3.8;;;;;;;17.82;26.01758;938.3084;;;;
2023/04/06 08:55:40;;;;;;;4.7;4.1;;;;;;;15.91;28.1582;938.2697;;;;
2023/04/06 08:58:06;;;;;;;4.7;4.2;;;;;;;15.95;27.62988;938.3134;;;;
2023/04/06 09:00:32;;;;;;;7.4;4.7;;;;;;;15.24;30.2041;938.3;;;;
2023/04/06 09:03:01;;;;;;;5.3;4;;;;;;;14.59;28.36133;938.3195;;;;
2023/04/06 09:05:27;;;;;;;5.5;4.6;;;;;;;14.41;29.53613;938.2958;;;;
2023/04/06 09:07:55;;;;;;;4.8;4.2;;;;;;;13.97;31.6709;938.298;;;;
2023/04/06 09:10:20;;;;;;;6.1;5.1;;;;;;;13.6;32.5752;938.3008;;;;
2023/04/06 09:12:46;;;;;;;8;5.2;;;;;;;13.34;33.36035;938.285;;;;
2023/04/06 09:15:11;;;;;;;5.1;4.6;;;;;;;13.26;32.33105;938.2772;;;;
2023/04/06 09:17:37;;;;;;;5.9;4.9;;;;;;;13.26;32.46875;938.27;;;;
2023/04/06 09:20:03;;;;;;;5.8;5;;;;;;;13.06;31.28223;938.2711;;;;
2023/04/06 09:22:30;;;;;;;5.8;4.6;;;;;;;12.9;31.74219;938.2715;;;;
2023/04/06 09:24:55;;;;;;;6.7;4.5;;;;;;;12.74;31.91406;938.2727;;;;
2023/04/06 09:27:20;;;;;;;5.1;4.1;;;;;;;12.87;31.40723;938.2963;;;;
2023/04/06 09:29:45;;;;;;;5.1;4.5;;;;;;;13;31.50879;938.2715;;;;
2023/04/06 09:32:12;;;;;;;4.3;3.9;;;;;;;13.44;31.29883;938.2349;;;;
2023/04/06 09:34:36;;;;;;;5.3;4.5;;;;;;;12.66;30.94434;938.236;;;;
2023/04/06 09:37:04;;;;;;;6.5;4.4;;;;;;;12.39;31.13184;938.1214;;;;
2023/04/06 09:39:29;;;;;;;7.3;4.5;;;;;;;12.21;32.04688;938.163;;;;
2023/04/06 09:41:58;;;;;;;5.8;4.9;;;;;;;12.8;31.6084;938.1513;;;;
2023/04/06 09:44:27;;;;;;;5.2;4.7;;;;;;;13.48;31.86523;938.1499;;;;
2023/04/06 09:52:51;;;;;;;5.3;4.8;;;;;;;13.63;31.19629;938.1418;;;;
2023/04/06 09:55:17;;;;;;;5.1;4.2;;;;;;;12.96;32.35449;938.1021;;;;
2023/04/06 09:57:43;;;;;;;6.9;4.4;;;;;;;12.99;32.93164;938.0981;;;;
2023/04/06 10:00:14;;;;;;;5.4;4.4;;;;;;;14.25;31.71387;938.0283;;;;
2023/04/06 10:02:37;;;;;;;5.7;4.1;;;;;;;14.84;29.19727;938.0209;;;;
2023/04/06 10:05:03;;;;;;;6.2;4.4;;;;;;;16.06;29.05859;937.9743;;;;
2023/04/06 10:07:31;;;;;;;5.5;3.6;;;;;;;16.12;27.52441;937.9679;;;;
2023/04/06 10:09:55;;;;;;;4.2;3.6;;;;;;;15.91;27.89258;937.9364;;;;
2023/04/06 10:12:20;;;;;;;5.9;3.9;;;;;;;15.89;28.09961;937.935;;;;
2023/04/06 10:14:45;;;;;;;4.4;3.8;;;;;;;16.29;26.35449;937.9178;;;;
2023/04/06 10:17:14;;;;;;;5;4.2;;;;;;;17.85;25.48535;937.9272;;;;
2023/04/06 10:19:39;;;;;;;4.7;3.7;;;;;;;18.65;24.74023;937.9305;;;;
2023/04/06 10:22:04;;;;;;;4.4;4;;;;;;;18.99;25.49316;937.865;;;;
2023/04/06 10:24:31;;;;;;;5.9;4.3;;;;;;;17.06;26.07715;937.8003;;;;
2023/04/06 10:26:56;;;;;;;5.2;4.1;;;;;;;15.65;27.98047;937.8153;;;;
2023/04/06 10:29:22;;;;;;;5.2;4.1;;;;;;;14.9;29.24707;937.8939;;;;
2023/04/06 10:31:47;;;;;;;4.2;3.8;;;;;;;14.97;28.79004;937.8412;;;;
2023/04/06 10:34:14;;;;;;;5.2;4;;;;;;;17.57;26.57129;937.8494;;;;
2023/04/06 10:36:39;;;;;;;4.2;3.6;;;;;;;19.69;22.68945;937.7924;;;;
2023/04/06 10:39:06;;;;;;;4;3.6;;;;;;;20.74;22.05371;937.7263;;;;
2023/04/06 10:41:30;;;;;;;3.7;3.4;;;;;;;20.88;20.92578;937.762;;;;
2023/04/06 10:43:57;;;;;;;3.9;3.5;;;;;;;19.67;21.73145;937.8116;;;;
2023/04/06 10:46:22;;;;;;;4;3.5;;;;;;;19.32;22.27344;937.7728;;;;
2023/04/06 10:48:49;;;;;;;3.7;3;;;;;;;19.7;22.54883;937.7883;;;;
2023/04/06 10:51:13;;;;;;;3.8;3.4;;;;;;;18.77;23.60742;937.777;;;;
2023/04/06 10:53:39;;;;;;;4.7;4;;;;;;;17.57;22.74219;937.7397;;;;
2023/04/06 10:56:05;;;;;;;3.8;3.4;;;;;;;18.86;24.36816;937.7704;;;;
2023/04/06 10:58:31;;;;;;;6;3.3;;;;;;;20.75;21.94824;937.6702;;;;
2023/04/06 11:00:57;;;;;;;4.9;3.5;;;;;;;20.16;22.15234;937.7317;;;;
2023/04/06 11:03:28;;;;;;;3.6;3.3;;;;;;;19.33;22.79785;937.7636;;;;
2023/04/06 11:05:53;;;;;;;4.8;3.5;;;;;;;17.9;23.91992;937.7473;;;;
2023/04/06 11:08:19;;;;;;;4;3.6;;;;;;;16.17;25.36426;937.7166;;;;
2023/04/06 11:11:03;;;;;;;4.4;4;;;;;;;17.63;24.99707;937.7599;;;;
2023/04/06 11:13:28;;;;;;;3.9;3.5;;;;;;;18.96;21.90625;937.6042;;;;
2023/04/06 11:15:57;;;;;;;4;3.6;;;;;;;18.08;22.39648;937.6811;;;;
2023/04/06 11:18:22;;;;;;;4.3;3.9;;;;;;;16.64;23.72461;937.617;;;;
2023/04/06 11:20:47;;;;;;;3.9;3.6;;;;;;;16.61;24.89258;937.552;;;;
2023/04/06 11:23:15;;;;;;;4.9;3.9;;;;;;;16.21;24.97363;937.5731;;;;
2023/04/06 11:25:41;;;;;;;5.3;4.2;;;;;;;17.82;23.91602;937.57;;;;
2023/04/06 11:28:08;;;;;;;4;3.6;;;;;;;18.7;23.95313;937.539;;;;
2023/04/06 11:30:33;;;;;;;4.7;3.7;;;;;;;17.33;25.30469;937.5826;;;;
2023/04/06 11:32:58;;;;;;;4.5;3.7;;;;;;;17.85;23.62695;937.4824;;;;
2023/04/06 11:35:25;;;;;;;4.5;3.9;;;;;;;16.59;26.57031;937.475;;;;
2023/04/06 11:37:50;;;;;;;7;4;;;;;;;16.54;25.3291;937.4797;;;;
2023/04/06 11:40:15;;;;;;;4.5;4.1;;;;;;;15.5;27.23145;937.4423;;;;
2023/04/06 11:42:41;;;;;;;6.6;4.2;;;;;;;14.84;29.19727;937.4061;;;;
2023/04/06 11:45:06;;;;;;;4.2;3.7;;;;;;;15.84;27.27539;937.3599;;;;
2023/04/06 11:47:34;;;;;;;4.4;4;;;;;;;16.56;25.30566;937.3309;;;;
2023/04/06 11:50:00;;;;;;;5.2;3.6;;;;;;;17.51;25.54688;937.2804;;;;
2023/04/06 11:52:48;;;;;;;3.9;3.5;;;;;;;18.35;25.2002;937.3734;;;;
2023/04/06 11:55:13;;;;;;;4;3.4;;;;;;;19.35;23.19531;937.3353;;;;
2023/04/06 11:57:38;;;;;;;4.6;3.6;;;;;;;19.69;22.82813;937.281;;;;
2023/04/06 12:00:06;;;;;;;5.1;3.4;;;;;;;20.38;21.49805;937.3116;;;;
2023/04/06 12:02:32;;;;;;;3.9;3.5;;;;;;;19.28;20.67578;937.3056;;;;
2023/04/06 12:04:57;;;;;;;3.9;3.3;;;;;;;17.53;21.83496;937.2534;;;;
2023/04/06 12:07:26;;;;;;;4.3;3.7;;;;;;;17.92;23.3877;937.2594;;;;
2023/04/06 12:09:51;;;;;;;4.2;3.4;;;;;;;16.87;24.97656;937.2594;;;;
2023/04/06 12:12:20;;;;;;;3.4;3.1;;;;;;;17.15;23.98438;937.262;;;;
2023/04/06 12:14:45;;;;;;;3.8;3.1;;;;;;;16.52;25.28125;937.2856;;;;
2023/04/06 12:17:13;;;;;;;3.7;3.1;;;;;;;16.16;24.60059;937.2219;;;;
2023/04/06 12:19:38;;;;;;;4.4;3.1;;;;;;;15.89;25.8916;937.2452;;;;
2023/04/06 12:22:06;;;;;;;3.7;3.4;;;;;;;16.3;25.98535;937.1928;;;;
2023/04/06 12:24:31;;;;;;;6.8;3.6;;;;;;;16.97;24.57715;937.1724;;;;
2023/04/06 12:27:01;;;;;;;4.3;3.4;;;;;;;19.13;21.77539;937.1105;;;;
2023/04/06 12:29:25;;;;;;;3.6;3.3;;;;;;;20.63;20.86719;937.0589;;;;
2023/04/06 12:31:50;;;;;;;4.1;3.2;;;;;;;21.63;20.58594;936.9984;;;;
2023/04/06 12:34:15;;;;;;;3.7;3.2;;;;;;;21.51;20.17188;937.0168;;;;
2023/04/06 12:36:42;;;;;;;3.5;3.2;;;;;;;20.02;20.62891;936.9392;;;;
2023/04/06 12:39:07;;;;;;;3.5;3.2;;;;;;;19.64;20.5293;936.9495;;;;
2023/04/06 12:41:33;;;;;;;3.8;3.4;;;;;;;18.15;22.0752;936.9551;;;;
2023/04/06 12:43:59;;;;;;;3.7;3.3;;;;;;;17.46;23.57129;936.9504;;;;
2023/04/06 12:46:26;;;;;;;3.8;3.2;;;;;;;15.92;25.14258;936.9774;;;;
2023/04/06 12:51:17;;;;;;;4;3.2;;;;;;;14.89;26.52539;936.9534;;;;
2023/04/06 12:53:41;;;;;;;3.5;3.2;;;;;;;15.35;26.77148;936.8772;;;;
2023/04/06 12:56:06;;;;;;;3.4;3.1;;;;;;;14.97;28.15527;936.9343;;;;
2023/04/06 12:58:31;;;;;;;5.8;3.4;;;;;;;14.85;28.05566;936.9651;;;;
2023/04/06 13:01:02;;;;;;;3.8;3.5;;;;;;;15;28.20313;936.9324;;;;
2023/04/06 13:03:24;;;;;;;5.3;3.5;;;;;;;14.53;28.4502;936.9833;;;;
2023/04/06 13:05:49;;;;;;;4;3.1;;;;;;;14.53;27.48242;936.9512;;;;
2023/04/06 13:08:14;;;;;;;4.5;3.5;;;;;;;14.65;28.31934;936.892;;;;
2023/04/06 13:10:39;;;;;;;4.8;3.1;;;;;;;14.3;28.78027;936.9403;;;;
2023/04/06 13:13:05;;;;;;;3.5;3.1;;;;;;;15.12;28.02734;936.8369;;;;
2023/04/06 13:15:32;;;;;;;4.3;3.2;;;;;;;16.15;26.38184;936.8492;;;;
2023/04/06 13:17:56;;;;;;;4.5;3.6;;;;;;;14.91;28.31348;936.8644;;;;
2023/04/06 13:20:24;;;;;;;3.9;3.5;;;;;;;13.98;29.51953;936.8489;;;;
2023/04/06 13:22:47;;;;;;;3.9;3.2;;;;;;;13.48;30.01465;936.9156;;;;
2023/04/06 13:25:48;;;;;;;3.9;3.5;;;;;;;13.82;31.03809;936.8795;;;;
2023/04/06 13:28:14;;;;;;;3.9;3.5;;;;;;;13.45;30.33301;936.9045;;;;
2023/04/06 13:31:05;;;;;;;3.6;3.3;;;;;;;13.4;30.53711;936.8165;;;;
2023/04/06 13:33:34;;;;;;;4;3.5;;;;;;;13.7;29.32715;936.8109;;;;
2023/04/06 13:35:58;;;;;;;5;3.4;;;;;;;14.05;29.66211;936.796;;;;
2023/04/06 13:38:24;;;;;;;4.6;3.6;;;;;;;14.25;29.75684;936.7589;;;;
2023/04/06 13:40:49;;;;;;;4.6;3.2;;;;;;;14.2;28.96973;936.6941;;;;
2023/04/06 13:43:14;;;;;;;4.2;3.3;;;;;;;13.88;28.81055;936.6942;;;;
2023/04/06 13:45:40;;;;;;;3.7;3.1;;;;;;;13.54;30.38574;936.6658;;;;
2023/04/06 13:48:05;;;;;;;4;3.1;;;;;;;13.58;30.1709;936.6353;;;;
2023/04/06 13:50:31;;;;;;;5.3;3.5;;;;;;;13.69;29.08594;936.6845;;;;
2023/04/06 13:52:56;;;;;;;4.4;3.6;;;;;;;13.29;29.47266;936.6401;;;;
2023/04/06 13:55:21;;;;;;;5.1;3.4;;;;;;;13.47;29.17383;936.6869;;;;
2023/04/06 13:57:48;;;;;;;5.3;3.9;;;;;;;13.72;29.57031;936.6404;;;;
2023/04/06 14:00:14;;;;;;;3.6;3.2;;;;;;;13.42;29.44727;936.6719;;;;
2023/04/06 14:02:41;;;;;;;4.8;3.5;;;;;;;13.75;29.6875;936.6066;;;;
2023/04/06 14:05:06;;;;;;;5.6;3.1;;;;;;;14.09;30.27539;936.6284;;;;
2023/04/06 14:07:31;;;;;;;3.8;3.3;;;;;;;13.97;31.45215;936.5872;;;;
2023/04/06 14:09:59;;;;;;;4.6;3.5;;;;;;;13.98;31.54395;936.7097;;;;
2023/04/06 14:12:24;;;;;;;4.9;3.4;;;;;;;14.22;28.25781;936.5869;;;;
2023/04/06 14:14:49;;;;;;;4.9;3.9;;;;;;;13.8;28.20703;936.6064;;;;
2023/04/06 14:17:16;;;;;;;4.7;3.4;;;;;;;13.89;29.17969;936.6309;;;;
2023/04/06 14:19:42;;;;;;;5.1;3.5;;;;;;;13.39;29.16895;936.6326;;;;
2023/04/06 14:22:08;;;;;;;4;3.1;;;;;;;13.48;28.20996;936.5461;;;;
2023/04/06 14:24:32;;;;;;;4.1;3.4;;;;;;;13.75;29.7334;936.5858;;;;
2023/04/06 14:27:00;;;;;;;5.8;3.9;;;;;;;14.02;28.39355;936.5744;;;;
2023/04/06 14:29:25;;;;;;;5.4;3.7;;;;;;;13.8;31.46191;936.5455;;;;
2023/04/06 14:31:50;;;;;;;3.7;3.3;;;;;;;14.05;28.91309;936.4365;;;;
2023/04/06 14:34:16;;;;;;;7.3;3.2;;;;;;;14.17;30.32617;936.4965;;;;